createdAt,value
2019-02-08T00:00:45.115Z,87.60
2019-02-08T00:03:16.411Z,87.60
2019-02-08T00:05:47.581Z,88.00
2019-02-08T00:08:18.826Z,87.80
2019-02-08T00:10:50.063Z,87.30
2019-02-08T00:13:21.363Z,87.40
2019-02-08T00:15:52.579Z,87.40
2019-02-08T00:18:24.025Z,87.70
2019-02-08T00:20:56.709Z,87.00
2019-02-08T00:23:27.975Z,87.00
2019-02-08T00:25:59.238Z,87.00
2019-02-08T00:28:30.494Z,86.70
2019-02-08T00:31:01.781Z,86.40
2019-02-08T00:33:34.489Z,87.80
2019-02-08T00:36:06.222Z,87.10
2019-02-08T00:38:37.514Z,87.30
2019-02-08T00:41:08.747Z,86.50
2019-02-08T00:43:39.937Z,87.10
2019-02-08T00:46:11.301Z,87.20
2019-02-08T00:48:42.540Z,86.40
2019-02-08T00:51:13.718Z,86.90
2019-02-08T00:53:44.982Z,87.80
2019-02-08T00:56:16.215Z,87.50
2019-02-08T00:58:47.494Z,87.40
2019-02-08T01:01:20.154Z,87.10
2019-02-08T01:03:51.362Z,87.50
2019-02-08T01:06:22.605Z,87.10
2019-02-08T01:08:53.978Z,88.30
2019-02-08T01:11:25.186Z,88.00
2019-02-08T01:13:56.463Z,88.20
2019-02-08T01:16:28.205Z,88.10
2019-02-08T01:18:59.463Z,87.70
2019-02-08T01:21:30.682Z,88.70
2019-02-08T01:24:01.935Z,88.50
2019-02-08T01:26:33.154Z,89.00
2019-02-08T01:29:04.501Z,88.70
2019-02-08T01:31:37.185Z,88.20
2019-02-08T01:34:08.463Z,88.20
2019-02-08T01:36:39.667Z,88.50
2019-02-08T01:39:11.885Z,88.10
2019-02-08T01:41:43.020Z,88.60
2019-02-08T01:44:14.285Z,87.90
2019-02-08T01:46:45.555Z,87.90
2019-02-08T01:49:16.855Z,88.30
2019-02-08T01:51:48.105Z,88.00
2019-02-08T01:54:19.373Z,88.40
2019-02-08T01:56:50.642Z,89.60
2019-02-08T01:59:21.944Z,88.70
2019-02-08T02:01:53.192Z,88.80
2019-02-08T02:04:24.464Z,89.40
2019-02-08T02:06:55.688Z,88.00
2019-02-08T02:09:27.009Z,88.20
2019-02-08T02:11:58.301Z,88.60
2019-02-08T02:14:29.578Z,88.60
2019-02-08T02:17:00.782Z,88.60
2019-02-08T02:19:32.107Z,89.30
2019-02-08T02:22:03.274Z,89.50
2019-02-08T02:24:34.557Z,88.40
2019-02-08T02:27:05.770Z,88.40
2019-02-08T02:29:37.043Z,88.70
2019-02-08T02:32:08.289Z,89.10
2019-02-08T02:34:39.483Z,90.10
2019-02-08T02:37:10.674Z,89.50
2019-02-08T02:39:41.897Z,88.80
2019-02-08T02:42:13.095Z,88.30
2019-02-08T02:44:44.365Z,89.60
2019-02-08T02:47:15.583Z,89.70
2019-02-08T02:49:46.782Z,89.00
2019-02-08T02:52:21.038Z,89.10
2019-02-08T02:54:52.343Z,89.90
2019-02-08T02:57:23.484Z,88.90
2019-02-08T02:59:54.762Z,88.60
2019-02-08T03:02:27.213Z,89.90
2019-02-08T03:04:58.517Z,89.30
2019-02-08T03:07:29.665Z,89.30
2019-02-08T03:10:00.951Z,89.10
2019-02-08T03:12:32.223Z,89.30
2019-02-08T03:15:03.493Z,89.40
2019-02-08T03:17:34.741Z,89.10
2019-02-08T03:20:09.185Z,89.40
2019-02-08T03:22:40.398Z,89.40
2019-02-08T03:25:14.714Z,90.30
2019-02-08T03:27:46.055Z,90.20
2019-02-08T03:30:21.635Z,90.20
2019-02-08T03:32:52.881Z,90.10
2019-02-08T03:35:25.423Z,89.90
2019-02-08T03:37:58.091Z,89.90
2019-02-08T03:40:30.601Z,89.00
2019-02-08T03:43:02.781Z,89.70
2019-02-08T03:45:35.622Z,89.70
2019-02-08T03:48:08.016Z,90.00
2019-02-08T03:50:39.468Z,90.00
2019-02-08T03:53:10.730Z,90.00
2019-02-08T03:55:42.991Z,90.10
2019-02-08T03:58:14.224Z,90.30
2019-02-08T04:00:47.001Z,90.10
2019-02-08T04:03:18.219Z,90.10
2019-02-08T04:05:49.482Z,90.20
2019-02-08T04:08:20.746Z,90.30
2019-02-08T04:10:52.005Z,90.40
2019-02-08T04:13:23.201Z,90.10
2019-02-08T04:15:54.454Z,90.10
2019-02-08T04:18:25.845Z,90.10
2019-02-08T04:20:57.094Z,90.00
2019-02-08T04:23:28.333Z,89.80
2019-02-08T04:26:00.253Z,89.80
2019-02-08T04:28:31.465Z,90.10
2019-02-08T04:31:03.826Z,89.30
2019-02-08T04:33:35.003Z,89.60
2019-02-08T04:36:06.257Z,89.30
2019-02-08T04:38:37.516Z,89.30
2019-02-08T04:41:08.833Z,87.60
2019-02-08T04:43:40.025Z,88.40
2019-02-08T04:46:11.366Z,88.40
2019-02-08T04:48:42.596Z,88.80
2019-02-08T04:51:16.374Z,89.30
2019-02-08T04:53:47.641Z,88.30
2019-02-08T04:56:18.953Z,88.30
2019-02-08T04:58:50.405Z,88.30
2019-02-08T05:01:21.683Z,87.90
2019-02-08T05:03:52.897Z,88.60
2019-02-08T05:06:24.102Z,87.90
2019-02-08T05:08:55.334Z,86.90
2019-02-08T05:11:26.610Z,86.60
2019-02-08T05:13:57.807Z,86.70
2019-02-08T05:16:29.095Z,86.60
2019-02-08T05:19:00.283Z,86.70
2019-02-08T05:21:31.586Z,86.50
2019-02-08T05:24:02.755Z,86.40
2019-02-08T05:26:34.065Z,86.80
2019-02-08T05:29:05.263Z,87.10
2019-02-08T05:31:36.706Z,87.30
2019-02-08T05:34:07.936Z,85.80
2019-02-08T05:36:39.241Z,86.40
2019-02-08T05:39:12.893Z,86.60
2019-02-08T05:41:44.558Z,84.50
2019-02-08T05:44:15.797Z,84.60
2019-02-08T05:46:47.003Z,85.10
2019-02-08T05:49:19.643Z,85.00
2019-02-08T05:51:50.893Z,86.00
2019-02-08T05:54:22.131Z,86.50
2019-02-08T05:56:53.385Z,85.30
2019-02-08T05:59:24.523Z,86.30
2019-02-08T06:01:55.795Z,85.00
2019-02-08T06:07:17.172Z,84.50
2019-02-08T06:09:48.387Z,86.10
2019-02-08T06:12:20.302Z,85.50
2019-02-08T06:14:51.551Z,85.20
2019-02-08T06:17:22.805Z,85.10
2019-02-08T06:19:54.027Z,86.40
2019-02-08T06:22:25.264Z,85.80
2019-02-08T06:25:03.323Z,86.10
2019-02-08T06:27:32.429Z,86.00
2019-02-08T06:30:05.852Z,85.70
2019-02-08T06:32:37.211Z,86.40
2019-02-08T06:35:09.418Z,85.20
2019-02-08T06:37:44.455Z,85.30
2019-02-08T06:40:16.992Z,86.20
2019-02-08T06:42:48.281Z,85.20
2019-02-08T06:45:22.625Z,84.30
2019-02-08T06:47:54.130Z,85.70
2019-02-08T06:50:26.479Z,85.00
2019-02-08T06:52:58.275Z,86.10
2019-02-08T06:55:29.471Z,86.00
2019-02-08T06:58:02.305Z,85.80
2019-02-08T07:00:40.931Z,86.10
2019-02-08T07:03:13.784Z,85.30
2019-02-08T07:05:52.333Z,83.50
2019-02-08T07:08:25.145Z,82.90
2019-02-08T07:10:57.927Z,82.90
2019-02-08T07:13:48.501Z,82.70
2019-02-08T07:16:24.231Z,82.60
2019-02-08T07:18:57.058Z,81.50
2019-02-08T07:21:35.629Z,81.20
2019-02-08T07:24:17.716Z,80.10
2019-02-08T07:26:56.323Z,79.90
2019-02-08T07:29:43.993Z,80.10
2019-02-08T07:32:25.659Z,80.10
2019-02-08T07:35:15.015Z,79.70
2019-02-08T07:37:47.774Z,79.80
2019-02-08T07:40:35.377Z,79.50
2019-02-08T07:43:24.633Z,79.40
2019-02-08T07:46:03.786Z,78.90
2019-02-08T07:48:39.303Z,79.50
2019-02-08T07:51:12.261Z,79.20
2019-02-08T07:53:50.901Z,79.70
2019-02-08T07:56:23.727Z,79.70
2019-02-08T07:59:08.433Z,79.60
2019-02-08T08:01:44.043Z,79.00
2019-02-08T08:04:16.837Z,79.00
2019-02-08T08:07:05.658Z,78.80
2019-02-08T08:09:48.701Z,78.30
2019-02-08T08:12:24.113Z,78.70
2019-02-08T08:14:59.653Z,78.90
2019-02-08T08:17:33.565Z,78.60
2019-02-08T08:20:12.342Z,78.70
2019-02-08T08:22:51.155Z,79.10
2019-02-08T08:25:24.395Z,78.80
2019-02-08T08:28:03.330Z,79.00
2019-02-08T08:30:45.228Z,79.20
2019-02-08T08:33:19.663Z,79.20
2019-02-08T08:35:54.058Z,79.70
2019-02-08T08:38:49.341Z,79.50
2019-02-08T08:41:51.598Z,79.40
2019-02-08T08:44:32.025Z,79.10
2019-02-08T08:47:28.964Z,78.90
2019-02-08T08:50:08.962Z,79.10
2019-02-08T08:53:00.674Z,78.80
2019-02-08T08:55:44.255Z,78.60
2019-02-08T08:58:24.423Z,78.90
2019-02-08T09:01:07.905Z,79.00
2019-02-08T09:03:51.361Z,78.80
2019-02-08T09:06:42.201Z,79.10
2019-02-08T09:09:28.666Z,78.70
2019-02-08T09:12:14.855Z,78.70
2019-02-08T09:15:22.418Z,79.20
2019-02-08T09:18:02.685Z,78.70
2019-02-08T09:20:58.057Z,78.50
2019-02-08T09:23:41.110Z,78.90
2019-02-08T09:26:36.222Z,79.40
2019-02-08T09:29:29.992Z,79.00
2019-02-08T09:32:16.366Z,79.10
2019-02-08T09:35:07.164Z,78.90
2019-02-08T09:37:50.385Z,78.90
2019-02-08T09:40:37.042Z,79.50
2019-02-08T09:43:16.792Z,78.30
2019-02-08T09:46:13.586Z,78.70
2019-02-08T09:48:53.815Z,78.50
2019-02-08T09:51:49.122Z,78.40
2019-02-08T09:54:45.870Z,78.40
2019-02-08T09:57:40.062Z,78.20
2019-02-08T10:00:32.696Z,78.10
2019-02-08T10:03:25.782Z,77.90
2019-02-08T10:06:06.010Z,77.50
2019-02-08T10:08:56.596Z,77.60
2019-02-08T10:11:50.343Z,77.70
2019-02-08T10:14:54.865Z,78.20
2019-02-08T10:17:38.023Z,78.40
2019-02-08T10:20:41.231Z,78.00
2019-02-08T10:23:38.037Z,77.90
2019-02-08T10:26:15.206Z,78.10
2019-02-08T10:29:01.366Z,78.30
2019-02-08T10:31:45.643Z,78.80
2019-02-08T10:34:45.430Z,77.70
2019-02-08T10:37:45.670Z,78.00
2019-02-08T10:40:29.145Z,77.00
2019-02-08T10:43:15.510Z,77.30
2019-02-08T10:45:52.570Z,77.30
2019-02-08T10:48:33.764Z,77.70
2019-02-08T10:51:33.582Z,78.10
2019-02-08T10:54:38.233Z,77.50
2019-02-08T10:57:22.232Z,77.00
2019-02-08T11:00:05.534Z,77.40
2019-02-08T11:03:02.535Z,76.80
2019-02-08T11:05:48.922Z,77.00
2019-02-08T11:08:58.233Z,76.60
2019-02-08T11:12:05.826Z,76.70
2019-02-08T11:14:51.803Z,76.20
2019-02-08T11:17:34.941Z,75.90
2019-02-08T11:20:08.443Z,75.70
2019-02-08T11:22:39.721Z,75.90
2019-02-08T11:25:10.945Z,75.40
2019-02-08T11:27:42.256Z,75.80
2019-02-08T11:30:17.417Z,75.10
2019-02-08T11:32:50.227Z,75.30
2019-02-08T11:35:21.467Z,74.80
2019-02-08T11:37:52.751Z,75.20
2019-02-08T11:40:25.361Z,75.70
2019-02-08T11:42:56.622Z,75.80
2019-02-08T11:45:27.882Z,75.60
2019-02-08T11:47:59.174Z,75.10
2019-02-08T11:50:30.428Z,75.00
2019-02-08T11:53:01.685Z,74.60
2019-02-08T11:55:32.934Z,74.30
2019-02-08T11:58:04.401Z,73.80
2019-02-08T12:00:40.155Z,73.90
2019-02-08T12:03:12.966Z,73.40
2019-02-08T12:05:44.141Z,73.90
2019-02-08T12:08:15.380Z,74.00
2019-02-08T12:10:46.643Z,73.70
2019-02-08T12:13:17.856Z,73.50
2019-02-08T12:15:49.063Z,73.00
2019-02-08T12:18:21.895Z,72.80
2019-02-08T12:20:53.206Z,72.50
2019-02-08T12:23:24.495Z,73.20
2019-02-08T12:25:55.842Z,72.50
2019-02-08T12:28:27.128Z,72.40
2019-02-08T12:30:58.362Z,72.50
2019-02-08T12:33:29.718Z,72.30
2019-02-08T12:36:00.918Z,72.10
2019-02-08T12:38:32.256Z,72.40
2019-02-08T12:41:09.680Z,72.70
2019-02-08T12:43:36.513Z,72.90
2019-02-08T12:46:07.766Z,72.80
2019-02-08T12:48:39.035Z,72.40
2019-02-08T12:51:10.337Z,72.40
2019-02-08T12:53:41.555Z,72.60
2019-02-08T12:56:12.745Z,72.60
2019-02-08T12:58:44.002Z,72.50
2019-02-08T13:01:15.217Z,72.80
2019-02-08T13:03:46.543Z,72.40
2019-02-08T13:06:17.751Z,72.50
2019-02-08T13:08:49.798Z,72.60
2019-02-08T13:11:21.025Z,72.60
2019-02-08T13:13:53.810Z,72.70
2019-02-08T13:16:25.016Z,71.90
2019-02-08T13:18:56.228Z,71.70
2019-02-08T13:21:27.425Z,72.10
2019-02-08T13:23:58.847Z,71.90
2019-02-08T13:26:30.066Z,72.10
2019-02-08T13:29:01.359Z,71.90
2019-02-08T13:31:34.038Z,72.00
2019-02-08T13:34:05.624Z,72.10
2019-02-08T13:36:36.782Z,72.40
2019-02-08T13:39:08.165Z,72.20
2019-02-08T13:41:42.330Z,72.20
2019-02-08T13:44:13.872Z,72.40
2019-02-08T13:46:46.222Z,72.80
2019-02-08T13:49:17.499Z,72.90
2019-02-08T13:51:53.215Z,72.30
2019-02-08T13:54:25.674Z,72.30
2019-02-08T13:57:00.698Z,72.50
2019-02-08T13:59:29.661Z,72.60
2019-02-08T14:02:00.757Z,72.30
2019-02-08T14:04:31.946Z,72.80
2019-02-08T14:07:03.073Z,73.20
2019-02-08T14:09:34.225Z,72.80
2019-02-08T14:12:05.257Z,72.90
2019-02-08T14:14:36.481Z,72.70
2019-02-08T14:19:43.565Z,72.80
2019-02-08T14:22:14.701Z,73.00
2019-02-08T14:24:46.037Z,72.90
2019-02-08T14:27:17.284Z,73.50
2019-02-08T14:29:48.559Z,73.40
2019-02-08T14:32:19.754Z,73.30
2019-02-08T14:34:51.000Z,73.40
2019-02-08T14:37:22.186Z,73.60
2019-02-08T14:39:53.361Z,73.70
2019-02-08T14:42:24.408Z,74.80
2019-02-08T14:44:55.605Z,75.10
2019-02-08T14:47:26.734Z,75.00
2019-02-08T14:49:57.793Z,76.00
2019-02-08T14:52:28.894Z,76.20
2019-02-08T14:54:59.953Z,77.10
2019-02-08T14:57:31.058Z,77.70
2019-02-08T15:03:12.522Z,78.20
2019-02-08T15:05:43.691Z,79.50
2019-02-08T15:08:14.783Z,79.90
2019-02-08T15:10:48.997Z,80.40
2019-02-08T15:13:23.846Z,80.60
2019-02-08T15:15:54.862Z,80.30
2019-02-08T15:18:26.276Z,81.20
2019-02-08T15:20:57.487Z,81.80
2019-02-08T15:23:28.679Z,82.40
2019-02-08T15:25:59.923Z,82.30
2019-02-08T15:28:31.229Z,83.30
2019-02-08T15:31:02.363Z,83.40
2019-02-08T15:33:33.603Z,84.40
2019-02-08T15:36:04.812Z,84.90
2019-02-08T15:38:36.036Z,85.60
2019-02-08T15:41:07.517Z,86.00
2019-02-08T15:43:38.866Z,86.60
2019-02-08T15:46:10.115Z,87.00
2019-02-08T15:48:41.456Z,87.70
2019-02-08T15:51:12.698Z,87.10
2019-02-08T15:53:43.937Z,87.30
2019-02-08T15:56:15.168Z,88.60
2019-02-08T15:58:46.354Z,88.40
2019-02-08T16:01:17.552Z,89.20
2019-02-08T16:03:48.834Z,90.00
2019-02-08T16:06:19.969Z,89.60
2019-02-08T16:08:51.226Z,89.30
2019-02-08T16:11:22.427Z,88.80
2019-02-08T16:13:53.713Z,89.80
2019-02-08T16:16:26.327Z,90.20
2019-02-08T16:18:58.935Z,89.70
2019-02-08T16:21:32.621Z,90.30
2019-02-08T16:24:03.912Z,90.20
2019-02-08T16:26:42.331Z,89.80
2019-02-08T16:29:12.418Z,90.10
2019-02-08T16:31:43.631Z,90.20
2019-02-08T16:34:17.884Z,90.40
2019-02-08T16:36:49.065Z,90.00
2019-02-08T16:39:20.313Z,90.80
2019-02-08T16:41:52.772Z,90.80
2019-02-08T16:44:24.253Z,90.80
2019-02-08T16:46:55.441Z,90.40
2019-02-08T16:49:27.055Z,90.30
2019-02-08T16:51:58.262Z,90.20
2019-02-08T16:54:29.439Z,90.60
2019-02-08T16:57:01.830Z,90.60
2019-02-08T16:59:34.441Z,90.30
2019-02-08T17:02:05.680Z,90.50
2019-02-08T17:04:36.829Z,91.30
2019-02-08T17:07:07.984Z,90.70
2019-02-08T17:09:40.375Z,91.10
2019-02-08T17:12:11.687Z,91.00
2019-02-08T17:14:42.965Z,91.20
2019-02-08T17:17:14.219Z,91.50
2019-02-08T17:19:45.449Z,91.50
2019-02-08T17:22:16.775Z,91.60
2019-02-08T17:24:48.182Z,91.20
2019-02-08T17:27:19.491Z,91.10
2019-02-08T17:29:50.788Z,91.50
2019-02-08T17:32:22.058Z,91.50
2019-02-08T17:34:53.194Z,91.50
2019-02-08T17:37:24.447Z,91.50
2019-02-08T17:39:55.658Z,91.70
2019-02-08T17:42:26.994Z,91.70
2019-02-08T17:44:58.511Z,91.30
2019-02-08T17:47:29.764Z,91.50
2019-02-08T17:50:01.123Z,91.20
2019-02-08T17:52:32.738Z,91.30
2019-02-08T17:55:11.433Z,91.60
2019-02-08T17:57:43.845Z,91.80
2019-02-08T18:00:35.383Z,91.60
2019-02-08T18:03:06.633Z,91.50
2019-02-08T18:05:38.899Z,91.80
2019-02-08T18:08:11.561Z,92.00
2019-02-08T18:10:42.933Z,91.70
2019-02-08T18:13:14.398Z,91.90
2019-02-08T18:15:45.856Z,91.50
2019-02-08T18:18:18.207Z,91.80
2019-02-08T18:20:58.173Z,91.90
2019-02-08T18:23:30.620Z,91.70
2019-02-08T18:26:01.966Z,91.90
2019-02-08T18:28:34.112Z,92.20
2019-02-08T18:31:05.393Z,91.30
2019-02-08T18:33:36.644Z,91.40
2019-02-08T18:36:10.999Z,91.40
2019-02-08T18:38:42.173Z,92.10
2019-02-08T18:41:13.615Z,92.30
2019-02-08T18:43:44.774Z,91.70
2019-02-08T18:46:16.088Z,92.10
2019-02-08T18:48:47.241Z,92.00
2019-02-08T18:51:18.376Z,92.00
2019-02-08T18:53:49.621Z,91.80
2019-02-08T18:56:20.842Z,92.60
2019-02-08T18:58:52.043Z,92.80
2019-02-08T19:01:23.245Z,92.10
2019-02-08T19:03:54.465Z,92.00
2019-02-08T19:06:25.764Z,91.70
2019-02-08T19:08:56.981Z,91.50
2019-02-08T19:11:28.192Z,91.60
2019-02-08T19:14:00.050Z,91.60
2019-02-08T19:16:31.336Z,91.70
2019-02-08T19:19:02.547Z,92.00
2019-02-08T19:21:33.839Z,91.90
2019-02-08T19:24:05.181Z,91.50
2019-02-08T19:26:37.979Z,91.60
2019-02-08T19:29:09.260Z,91.70
2019-02-08T19:31:57.369Z,92.10
2019-02-08T19:34:28.625Z,92.30
2019-02-08T19:36:59.893Z,92.30
2019-02-08T19:39:31.166Z,91.70
2019-02-08T19:42:03.071Z,91.60
2019-02-08T19:44:35.419Z,91.70
2019-02-08T19:47:06.605Z,91.90
2019-02-08T19:49:37.917Z,91.50
2019-02-08T19:52:09.358Z,91.60
2019-02-08T19:54:40.607Z,91.60
2019-02-08T19:57:11.878Z,91.60
2019-02-08T19:59:43.093Z,91.90
2019-02-08T20:02:14.381Z,91.50
2019-02-08T20:04:45.511Z,92.00
2019-02-08T20:07:16.866Z,92.20
2019-02-08T20:09:49.092Z,92.20
2019-02-08T20:12:21.896Z,92.30
2019-02-08T20:14:53.142Z,91.90
2019-02-08T20:17:25.132Z,91.90
2019-02-08T20:19:56.321Z,92.20
2019-02-08T20:22:27.647Z,92.00
2019-02-08T20:24:58.891Z,91.80
2019-02-08T20:27:30.206Z,91.80
2019-02-08T20:30:01.415Z,91.70
2019-02-08T20:32:32.648Z,91.80
2019-02-08T20:35:04.478Z,91.90
2019-02-08T20:37:35.681Z,91.60
2019-02-08T20:40:10.046Z,92.10
2019-02-08T20:42:42.750Z,91.70
2019-02-08T20:45:17.072Z,91.80
2019-02-08T20:47:48.347Z,92.00
2019-02-08T20:50:20.059Z,92.00
2019-02-08T20:52:51.430Z,91.70
2019-02-08T20:55:23.590Z,91.70
2019-02-08T20:57:55.302Z,91.70
2019-02-08T21:00:30.290Z,91.90
2019-02-08T21:03:01.972Z,91.90
2019-02-08T21:05:33.226Z,91.60
2019-02-08T21:08:09.359Z,91.70
2019-02-08T21:10:40.563Z,91.60
2019-02-08T21:13:13.226Z,91.50
2019-02-08T21:15:44.456Z,91.70
2019-02-08T21:18:15.772Z,92.10
2019-02-08T21:20:46.849Z,91.50
2019-02-08T21:23:17.969Z,92.10
2019-02-08T21:25:52.352Z,91.50
2019-02-08T21:28:23.325Z,91.50
2019-02-08T21:30:54.440Z,91.40
2019-02-08T21:33:25.607Z,91.90
2019-02-08T21:35:56.780Z,91.70
2019-02-08T21:38:27.975Z,92.60
2019-02-08T21:40:59.170Z,92.20
2019-02-08T21:43:32.000Z,92.20
2019-02-08T21:46:03.141Z,92.10
2019-02-08T21:48:34.312Z,92.20
2019-02-08T21:51:05.470Z,91.90
2019-02-08T21:53:36.655Z,92.90
2019-02-08T21:56:07.838Z,92.20
2019-02-08T21:58:38.940Z,92.70
2019-02-08T22:01:10.124Z,92.60
2019-02-08T22:03:41.927Z,92.50
2019-02-08T22:06:13.120Z,93.00
2019-02-08T22:08:44.204Z,93.10
2019-02-08T22:11:15.410Z,93.40
2019-02-08T22:13:46.581Z,92.50
2019-02-08T22:16:17.587Z,92.70
2019-02-08T22:18:48.695Z,92.60
2019-02-08T22:21:19.808Z,92.70
2019-02-08T22:23:51.008Z,92.50
2019-02-08T22:26:28.539Z,92.40
2019-02-08T22:29:02.049Z,92.30
2019-02-08T22:31:33.319Z,92.30
2019-02-08T22:34:04.514Z,92.50
2019-02-08T22:36:36.755Z,93.10
2019-02-08T22:39:08.622Z,92.70
2019-02-08T22:41:39.785Z,92.50
2019-02-08T22:44:11.076Z,92.70
2019-02-08T22:46:42.295Z,92.80
2019-02-08T22:49:13.598Z,93.00
2019-02-08T22:51:44.828Z,94.20
2019-02-08T22:54:16.081Z,93.60
2019-02-08T22:56:47.314Z,93.60
2019-02-08T22:59:22.191Z,93.90
2019-02-08T23:01:51.432Z,93.90
2019-02-08T23:04:22.742Z,93.50
2019-02-08T23:06:53.972Z,93.10
2019-02-08T23:09:26.678Z,93.20
2019-02-08T23:11:58.114Z,93.20
2019-02-08T23:14:29.374Z,93.40
2019-02-08T23:17:01.308Z,93.60
2019-02-08T23:19:32.564Z,93.60
2019-02-08T23:22:03.794Z,94.00
2019-02-08T23:24:35.024Z,93.80
2019-02-08T23:27:06.245Z,93.90
2019-02-08T23:29:38.998Z,93.70
2019-02-08T23:32:10.263Z,94.00
2019-02-08T23:34:41.543Z,94.30
2019-02-08T23:37:12.767Z,94.20
2019-02-08T23:39:43.964Z,94.20
2019-02-08T23:42:15.063Z,94.00
2019-02-08T23:44:46.230Z,93.80
2019-02-08T23:47:17.477Z,94.10
2019-02-08T23:49:48.745Z,93.70
2019-02-08T23:52:22.673Z,93.10
2019-02-08T23:54:53.868Z,93.50
2019-02-08T23:57:25.094Z,93.10
2019-02-08T23:59:56.273Z,93.20
